Metar Report
Metar
METAR KVGC 271856Z AUTO 00000KT 7SM OVC060 11/08 A2999 A02 P0012 2431
METAR KVGC 271756Z AUTO 22004KT 10SM SCT033 BKN065 OVC110 17/10 A2993 A02 P0002 2430
METAR KVGC 271656Z AUTO 19007KT 10SM SCT038 SCT050 SCT055 18/09 A2995 A02 2429
METAR KVGC 271556Z AUTO 24003KT 10SM SCT016 BKN025 BKN032 16/10 A2997 A02 2428
METAR KVGC 271456Z AUTO 00000KT 10SM SCT014 BKN043 OVC049 13/10 A3000 A02 P0001 2427
METAR KVGC 271356Z AUTO 00000KT 10SM BKN055 OVC070 13/10 A3000 A02 2426
METAR KVGC 271256Z AUTO 17003KT 10SM BKN090 OVC110 13/11 A3001 A02 2425
METAR KVGC 271156Z AUTO 16005KT 7SM OVC120 13/11 A3000 A02 2424
METAR KVGC 271056Z AUTO 13005KT 10SM CLR 11/11 A2999 A02 2423
METAR KVGC 270956Z AUTO 13003KT 7SM SCT006 09/09 A2999 A02 2422
METAR KVGC 270856Z AUTO 00000KT 10SM CLR 09/08 A2998 A02 2421
METAR KVGC 270756Z AUTO 00000KT 5SM SCT110 10/09 A2998 A02 2420
METAR KVGC 270656Z AUTO 15003KT 10SM SCT110 11/10 A2999 A02 2419
METAR KVGC 270556Z AUTO 14003KT 10SM OVC110 12/11 A2999 A02 2418
METAR KVGC 270456Z AUTO 10003KT 10SM OVC110 12/11 A3000 A02 2417
METAR KVGC 270356Z AUTO 15003KT 10SM SCT120 12/11 A3001 A02 2416
METAR KVGC 270256Z AUTO 00000KT 10SM SCT090 12/11 A3001 A02 P0001 2415
METAR KVGC 270156Z AUTO 00000KT 10SM BKN100 13/11 A3001 A02 P0001 2414
METAR KVGC 270056Z AUTO 00000KT 10SM SCT049 BKN060 OVC070 14/10 A3001 A02 P0002 2413
METAR KVGC 262356Z AUTO 00000KT 10SM BKN070 OVC080 14/11 A2998 A02 P0004 2412
METAR KVGC 262256Z AUTO 23003KT 10SM OVC070 16/11 A3000 A02 P0001 2411
METAR KVGC 262156Z AUTO 31003KT 10SM SCT055 BKN100 19/09 A2998 A02 2410
METAR KVGC 262056Z AUTO 00000KT 10SM BKN047 BKN050 BKN075 19/09 A2998 A02 2409
METAR KVGC 261956Z AUTO 00000KT 10SM SCT090 OVC120 17/10 A2999 A02 2408
METAR KVGC 261856Z AUTO 32010G16KT 10SM SCT031 BKN060 OVC080 15/11 A3001 A02 2407
METAR KVGC 261756Z AUTO 25006G14KT 220V280 10SM SCT048 SCT070 BKN080 20/08 A2998 A02 2406
METAR KVGC 261656Z AUTO 28005KT 10SM BKN090 19/09 A2999 A02 2405
METAR KVGC 261556Z AUTO 24005KT 10SM SCT040 SCT050 BKN085 19/09 A3001 A02 2404
METAR KVGC 261456Z AUTO 25003KT 10SM SCT036 BKN065 OVC090 18/10 A3002 A02 2403
METAR KVGC 261356Z AUTO 26004KT 10SM SCT032 SCT037 BKN043 18/10 A3002 A02 2402
METAR KVGC 261256Z AUTO 24005KT 10SM SCT023 17/11 A3002 A02 2401
METAR KVGC 261156Z AUTO 16005KT 7SM SCT050 14/11 A3003 A02 2400
METAR KVGC 261056Z AUTO 00000KT 10SM SCT036 BKN055 11/11 A3002 A02 2399
METAR KVGC 260956Z AUTO 00000KT 10SM SCT038 09/08 A3001 A02 2398
METAR KVGC 260856Z AUTO 00000KT 7SM CLR 09/09 A2999 A02 2397
METAR KVGC 260756Z AUTO 00000KT 7SM CLR 09/09 A2999 A02 2396
METAR KVGC 260656Z AUTO 00000KT 7SM CLR 11/09 A2999 A02 2395
METAR KVGC 260556Z AUTO 00000KT 10SM BKN075 12/10 A3001 A02 2394
METAR KVGC 260456Z AUTO 00000KT 10SM CLR 12/10 A3001 A02 2393
METAR KVGC 260356Z AUTO 00000KT 10SM CLR 11/10 A3001 A02 2392
METAR KVGC 260256Z AUTO 16003KT 10SM SCT055 12/11 A3002 A02 2391
METAR KVGC 260156Z AUTO 00000KT 10SM CLR 12/11 A3001 A02 2390
METAR KVGC 260056Z AUTO 17003KT 10SM BKN070 BKN080 14/11 A3000 A02 2389
METAR KVGC 252356Z AUTO 35006KT 10SM OVC075 14/11 A3001 A02 P0001 2388
METAR KVGC 252256Z AUTO 31006KT 10SM SCT120 19/07 A2997 A02 2387
METAR KVGC 252156Z AUTO 28006G09KT 10SM SCT100 21/08 A2995 A02 2386
METAR KVGC 252056Z AUTO 00000KT 10SM SCT050 BKN070 OVC100 18/11 A2997 A02 2385
METAR KVGC 251956Z AUTO 30007KT 10SM SCT065 BKN090 22/06 A2994 A02 2384
METAR KVGC 251856Z AUTO 28005KT 10SM CLR 23/08 A2996 A02 2383
METAR KVGC 251756Z AUTO 32008G15KT 10SM SCT060 SCT080 21/11 A2998 A02 2382
METAR KVGC 251656Z AUTO 27004KT 10SM OVC090 21/09 A2999 A02 2381
METAR KVGC 251556Z AUTO 26009G16KT 10SM SCT050 SCT060 BKN100 23/08 A2999 A02 2380
METAR KVGC 251456Z AUTO 22006G14KT 10SM SCT046 BKN050 BKN070 22/10 A2999 A02 2379
METAR KVGC 251356Z AUTO 23005KT 10SM SCT100 21/11 A2999 A02 2378
METAR KVGC 251256Z AUTO 26003KT 10SM SCT100 19/12 A2999 A02 2377
METAR KVGC 251156Z AUTO 14003KT 10SM CLR 17/12 A2998 A02 2376
METAR KVGC 251056Z AUTO 15003KT 10SM CLR 14/12 A2997 A02 2375
METAR KVGC 250956Z AUTO 00000KT 7SM OVC120 12/11 A2997 A02 2374
METAR KVGC 250856Z AUTO 00000KT 10SM SCT100 11/11 A2997 A02 2373
METAR KVGC 250756Z AUTO 00000KT 10SM CLR 11/11 A2996 A02 2372
METAR KVGC 250656Z AUTO 00000KT 10SM CLR 12/11 A2996 A02 2371
METAR KVGC 250556Z AUTO 13003KT 10SM CLR 12/11 A2997 A02 2370
METAR KVGC 250456Z AUTO 00000KT 10SM CLR 13/11 A2996 A02 2369
METAR KVGC 250356Z AUTO 00000KT 10SM CLR 13/11 A2994 A02 2368
METAR KVGC 250256Z AUTO 00000KT 10SM CLR 15/11 A2994 A02 2367
METAR KVGC 250156Z AUTO 00000KT 10SM CLR 15/12 A2992 A02 2366
METAR KVGC 250056Z AUTO 31003KT 10SM CLR 18/10 A2990 A02 2365
METAR KVGC 242356Z AUTO 33005KT 10SM CLR 21/11 A2987 A02 2364
METAR KVGC 242256Z AUTO 35007KT 10SM CLR 22/11 A2985 A02 2363
METAR KVGC 242156Z AUTO 33007G17KT 10SM SCT046 BKN070 OVC080 21/11 A2984 A02 2362
METAR KVGC 242056Z AUTO 34008KT 10SM SCT050 24/12 A2982 A02 2361
METAR KVGC 241956Z AUTO 31007KT 10SM BKN060 BKN080 BKN100 24/11 A2980 A02 2360
METAR KVGC 241856Z AUTO 28003KT 10SM SCT055 SCT080 BKN090 24/11 A2979 A02 2359
METAR KVGC 241756Z AUTO 33008KT 10SM BKN055 BKN075 24/11 A2979 A02 2358
METAR KVGC 241656Z AUTO 32007G20KT 270V340 10SM SCT050 23/11 A2978 A02 2357
METAR KVGC 241556Z AUTO 30011G18KT 10SM CLR 22/11 A2977 A02 2356
METAR KVGC 241456Z AUTO 31009G15KT 10SM CLR 22/12 A2974 A02 2355
METAR KVGC 241356Z AUTO 31010G16KT 10SM CLR 21/14 A2971 A02 2354
METAR KVGC 241256Z AUTO 31009KT 290V350 10SM SCT016 SCT023 19/15 A2969 A02 2353
METAR KVGC 241156Z AUTO 31004KT 10SM SCT014 BKN090 BKN120 18/15 A2967 A02 2352
METAR KVGC 241056Z AUTO 32003KT 10SM BKN065 OVC075 17/15 A2966 A02 P0002 2351
METAR KVGC 240956Z AUTO 34008G16KT 5SM SCT011 BKN017 OVC047 17/16 A2963 A02 P0026 2350
METAR KVGC 240856Z AUTO 33006KT 5SM SCT009 BKN023 OVC030 19/17 A2959 A02 P0009 2349
METAR KVGC 240756Z AUTO 00000KT 7SM SCT032 SCT043 OVC100 19/19 A2957 A02 2348
METAR KVGC 240656Z AUTO 00000KT 10SM BKN070 OVC090 19/18 A2959 A02 2347
METAR KVGC 240556Z AUTO 00000KT 10SM BKN065 OVC080 20/18 A2960 A02 2346
METAR KVGC 240456Z AUTO 34004KT 10SM SCT014 SCT019 OVC028 20/17 A2960 A02 P0001 2345
METAR KVGC 240356Z AUTO 28003KT 10SM BKN023 OVC029 22/19 A2960 A02 2344
METAR KVGC 240256Z AUTO 20003KT 10SM SCT043 SCT050 SCT065 22/19 A2960 A02 2343
METAR KVGC 240156Z AUTO 00000KT 10SM SCT035 BKN050 OVC065 23/19 A2960 A02 2342
METAR KVGC 240056Z AUTO 18004KT 10SM SCT017 SCT040 BKN120 23/19 A2959 A02 2341
METAR KVGC 232356Z AUTO 18003KT 10SM SCT018 BKN060 OVC070 23/19 A2959 A02 2340
METAR KVGC 232256Z AUTO 17005KT 10SM BKN019 BKN023 OVC037 23/20 A2959 A02 2339
METAR KVGC 232156Z AUTO 18004KT 10SM BKN034 BKN040 OVC047 23/19 A2959 A02 2338
METAR KVGC 232056Z AUTO 19008KT 10SM BKN022 BKN028 OVC033 24/19 A2962 A02 2337
METAR KVGC 231956Z AUTO 20006KT 10SM SCT041 25/19 A2963 A02 2336
METAR KVGC 231856Z AUTO 22005KT 10SM BKN019 OVC040 24/19 A2965 A02 2335
METAR KVGC 231756Z AUTO 17007KT 7SM BKN020 BKN032 OVC041 22/19 A2967 A02 2334
METAR KVGC 231656Z AUTO 23011G14KT 7SM BKN034 BKN042 OVC055 25/17 A2968 A02 2333
METAR KVGC 231556Z AUTO 21004KT 10SM SCT027 BKN034 OVC120 26/18 A2970 A02 2332
METAR KVGC 231456Z AUTO 22007KT 10SM SCT031 BKN048 OVC065 25/18 A2973 A02 2331
METAR KVGC 231356Z AUTO 20003KT 10SM BKN027 OVC034 25/18 A2974 A02 2330
METAR KVGC 231256Z AUTO 21004KT 10SM BKN075 24/18 A2977 A02 2329
METAR KVGC 231156Z AUTO 20004KT 10SM SCT055 BKN120 23/18 A2978 A02 2328
METAR KVGC 231056Z AUTO 21003KT 10SM CLR 22/17 A2979 A02 2327
METAR KVGC 230956Z AUTO 00000KT 10SM CLR 22/17 A2979 A02 2326
METAR KVGC 230856Z AUTO 00000KT 10SM BKN110 22/17 A2980 A02 2325
METAR KVGC 230756Z AUTO 15003KT 10SM OVC095 21/18 A2980 A02 2324
METAR KVGC 230656Z AUTO 00000KT 10SM BKN120 19/17 A2981 A02 2323
METAR KVGC 230556Z AUTO 00000KT 10SM CLR 19/17 A2984 A02 2322
METAR KVGC 230456Z AUTO 16003KT 10SM CLR 19/17 A2986 A02 2321
METAR KVGC 230356Z AUTO 00000KT 10SM CLR 20/16 A2988 A02 2320
METAR KVGC 230256Z AUTO 00000KT 10SM CLR 19/16 A2989 A02 2319
METAR KVGC 230156Z AUTO 00000KT 10SM SCT055 SCT080 SCT090 19/17 A2989 A02 2318
METAR KVGC 230056Z AUTO 00000KT 10SM BKN110 21/16 A2987 A02 2317
METAR KVGC 222356Z AUTO 00000KT 10SM SCT060 23/14 A2989 A02 2316
METAR KVGC 222256Z AUTO 00000KT 10SM OVC075 24/12 A2990 A02 2315
METAR KVGC 222156Z AUTO 19003KT 10SM OVC100 24/12 A2990 A02 2314
METAR KVGC 222056Z AUTO 21004KT 10SM BKN120 24/10 A2991 A02 2313
METAR KVGC 221956Z AUTO 22007KT 170V250 10SM SCT070 SCT085 BKN120 24/11 A2994 A02 2312
METAR KVGC 221856Z AUTO 23003KT 10SM SCT100 24/09 A2996 A02 2311